sensor_id;sensor_type;location;lat;lon;timestamp;pressure;altitude;pressure_sealevel;temperature;humidity
47166;BME280;32930;51.112;13.762;2023-01-30T00:06:45;99431.16;;;1.57;64.16
47166;BME280;32930;51.112;13.762;2023-01-30T00:09:12;99435.25;;;1.54;65.28
47166;BME280;32930;51.112;13.762;2023-01-30T00:11:39;99440.75;;;1.65;65.72
47166;BME280;32930;51.112;13.762;2023-01-30T00:14:05;99421.16;;;1.81;63.35
47166;BME280;32930;51.112;13.762;2023-01-30T00:16:30;99407.91;;;1.89;63.53
47166;BME280;32930;51.112;13.762;2023-01-30T00:18:56;99416.31;;;1.65;63.83
47166;BME280;32930;51.112;13.762;2023-01-30T00:21:21;99411.63;;;1.74;63.87
47166;BME280;32930;51.112;13.762;2023-01-30T00:51:08;99339.78;;;1.69;64.48
47166;BME280;32930;51.112;13.762;2023-01-30T00:53:34;99339.78;;;1.69;64.43
47166;BME280;32930;51.112;13.762;2023-01-30T00:56:00;99339.19;;;1.76;64.17
47166;BME280;32930;51.112;13.762;2023-01-30T00:58:25;99347.78;;;1.80;62.98
47166;BME280;32930;51.112;13.762;2023-01-30T01:12:29;99347.94;;;1.84;64.03
47166;BME280;32930;51.112;13.762;2023-01-30T01:14:55;99341.09;;;1.82;64.60
47166;BME280;32930;51.112;13.762;2023-01-30T01:17:23;99322.53;;;1.81;64.83
47166;BME280;32930;51.112;13.762;2023-01-30T01:19:49;99323.22;;;1.77;65.49
47166;BME280;32930;51.112;13.762;2023-01-30T01:22:14;99311.78;;;1.87;64.45
47166;BME280;32930;51.112;13.762;2023-01-30T01:24:40;99305.34;;;1.73;65.56
47166;BME280;32930;51.112;13.762;2023-01-30T01:27:05;99295.28;;;1.98;64.37
47166;BME280;32930;51.112;13.762;2023-01-30T01:29:31;99280.69;;;1.90;66.17
47166;BME280;32930;51.112;13.762;2023-01-30T01:31:57;99272.22;;;1.89;64.82
47166;BME280;32930;51.112;13.762;2023-01-30T01:34:22;99260.56;;;1.93;64.38
47166;BME280;32930;51.112;13.762;2023-01-30T01:36:48;99253.22;;;1.76;64.87
47166;BME280;32930;51.112;13.762;2023-01-30T01:39:14;99259.06;;;1.51;67.37
47166;BME280;32930;51.112;13.762;2023-01-30T01:41:39;99263.81;;;1.66;68.36
47166;BME280;32930;51.112;13.762;2023-01-30T01:44:10;99243.97;;;2.01;65.71
47166;BME280;32930;51.112;13.762;2023-01-30T01:46:42;99244.88;;;1.79;66.55
47166;BME280;32930;51.112;13.762;2023-01-30T01:49:28;99249.50;;;1.91;66.42
47166;BME280;32930;51.112;13.762;2023-01-30T02:15:38;99143.09;;;1.84;68.52
47166;BME280;32930;51.112;13.762;2023-01-30T02:18:03;99139.63;;;1.82;69.06
47166;BME280;32930;51.112;13.762;2023-01-30T02:39:25;99133.31;;;1.95;72.40
47166;BME280;32930;51.112;13.762;2023-01-30T02:44:42;99163.47;;;1.89;73.24
47166;BME280;32930;51.112;13.762;2023-01-30T02:47:18;99160.28;;;1.95;73.00
47166;BME280;32930;51.112;13.762;2023-01-30T02:49:54;99137.56;;;2.22;71.82
47166;BME280;32930;51.112;13.762;2023-01-30T02:52:23;99128.81;;;2.12;71.69
47166;BME280;32930;51.112;13.762;2023-01-30T02:54:49;99120.66;;;2.21;71.82
47166;BME280;32930;51.112;13.762;2023-01-30T02:57:21;99113.75;;;2.15;71.63
47166;BME280;32930;51.112;13.762;2023-01-30T02:59:53;99106.38;;;2.23;72.21
47166;BME280;32930;51.112;13.762;2023-01-30T03:11:03;99075.13;;;2.21;73.13
47166;BME280;32930;51.112;13.762;2023-01-30T03:16:35;99071.81;;;2.23;73.11
47166;BME280;32930;51.112;13.762;2023-01-30T03:19:04;99069.72;;;2.37;72.65
47166;BME280;32930;51.112;13.762;2023-01-30T03:21:32;99052.19;;;2.43;72.46
47166;BME280;32930;51.112;13.762;2023-01-30T03:23:57;99043.31;;;2.29;73.70
47166;BME280;32930;51.112;13.762;2023-01-30T03:26:34;99040.59;;;2.23;74.37
47166;BME280;32930;51.112;13.762;2023-01-30T03:29:03;99027.53;;;2.38;73.70
47166;BME280;32930;51.112;13.762;2023-01-30T03:31:29;99017.34;;;2.36;74.06
47166;BME280;32930;51.112;13.762;2023-01-30T03:33:54;99005.41;;;2.30;73.85
47166;BME280;32930;51.112;13.762;2023-01-30T03:36:21;99016.78;;;2.16;75.02
47166;BME280;32930;51.112;13.762;2023-01-30T03:38:46;99009.25;;;2.48;74.27
47166;BME280;32930;51.112;13.762;2023-01-30T03:41:12;99004.88;;;2.42;74.06
47166;BME280;32930;51.112;13.762;2023-01-30T03:43:38;98994.06;;;2.48;74.22
47166;BME280;32930;51.112;13.762;2023-01-30T03:46:03;98984.28;;;2.59;73.37
47166;BME280;32930;51.112;13.762;2023-01-30T03:48:29;98982.16;;;2.44;75.32
47166;BME280;32930;51.112;13.762;2023-01-30T03:50:54;98982.06;;;2.41;75.06
47166;BME280;32930;51.112;13.762;2023-01-30T04:02:32;99014.84;;;2.66;75.11
47166;BME280;32930;51.112;13.762;2023-01-30T04:04:58;99010.28;;;2.54;75.77
47166;BME280;32930;51.112;13.762;2023-01-30T04:18:29;98977.13;;;2.75;74.22
47166;BME280;32930;51.112;13.762;2023-01-30T04:20:54;98975.56;;;2.81;73.53
47166;BME280;32930;51.112;13.762;2023-01-30T04:23:20;98957.38;;;2.64;75.17
47166;BME280;32930;51.112;13.762;2023-01-30T04:25:45;98954.66;;;2.88;73.73
47166;BME280;32930;51.112;13.762;2023-01-30T04:31:33;98938.56;;;2.86;74.04
47166;BME280;32930;51.112;13.762;2023-01-30T04:33:59;98943.03;;;2.96;74.39
47166;BME280;32930;51.112;13.762;2023-01-30T04:36:24;98938.97;;;2.69;75.48
47166;BME280;32930;51.112;13.762;2023-01-30T05:20:46;98809.03;;;3.07;75.05
47166;BME280;32930;51.112;13.762;2023-01-30T05:23:11;98807.50;;;3.15;75.49
47166;BME280;32930;51.112;13.762;2023-01-30T05:25:37;98806.72;;;3.17;75.21
47166;BME280;32930;51.112;13.762;2023-01-30T05:28:02;98808.56;;;3.23;74.88
47166;BME280;32930;51.112;13.762;2023-01-30T05:30:28;98805.09;;;3.19;75.45
47166;BME280;32930;51.112;13.762;2023-01-30T05:32:54;98789.13;;;3.23;75.26
47166;BME280;32930;51.112;13.762;2023-01-30T05:46:37;98791.78;;;3.28;76.29
47166;BME280;32930;51.112;13.762;2023-01-30T05:49:02;98765.34;;;3.17;76.86
47166;BME280;32930;51.112;13.762;2023-01-30T05:51:29;98760.91;;;3.08;78.04
47166;BME280;32930;51.112;13.762;2023-01-30T05:53:55;98773.16;;;3.26;77.69
47166;BME280;32930;51.112;13.762;2023-01-30T05:56:21;98766.53;;;3.33;78.04
47166;BME280;32930;51.112;13.762;2023-01-30T05:58:53;98769.09;;;3.34;77.35
47166;BME280;32930;51.112;13.762;2023-01-30T06:17:22;98756.53;;;3.40;78.26
47166;BME280;32930;51.112;13.762;2023-01-30T06:19:47;98753.44;;;3.54;77.73
47166;BME280;32930;51.112;13.762;2023-01-30T06:22:13;98755.94;;;3.51;77.84
47166;BME280;32930;51.112;13.762;2023-01-30T06:24:38;98757.63;;;3.52;77.92
47166;BME280;32930;51.112;13.762;2023-01-30T06:42:58;98741.09;;;3.70;78.81
47166;BME280;32930;51.112;13.762;2023-01-30T06:45:24;98749.06;;;3.46;79.57
47166;BME280;32930;51.112;13.762;2023-01-30T06:47:52;98736.63;;;3.59;79.68
47166;BME280;32930;51.112;13.762;2023-01-30T06:50:20;98748.06;;;3.40;81.75
47166;BME280;32930;51.112;13.762;2023-01-30T06:52:47;98747.34;;;3.44;83.00
47166;BME280;32930;51.112;13.762;2023-01-30T06:55:15;98752.34;;;3.41;83.25
47166;BME280;32930;51.112;13.762;2023-01-30T06:57:42;98739.03;;;3.53;85.06
47166;BME280;32930;51.112;13.762;2023-01-30T07:00:16;98747.09;;;3.33;86.56
47166;BME280;32930;51.112;13.762;2023-01-30T07:02:42;98752.47;;;3.47;86.75
47166;BME280;32930;51.112;13.762;2023-01-30T07:05:09;98746.31;;;3.37;88.43
47166;BME280;32930;51.112;13.762;2023-01-30T07:07:35;98739.56;;;3.36;89.64
47166;BME280;32930;51.112;13.762;2023-01-30T07:29:20;98709.94;;;3.34;95.32
47166;BME280;32930;51.112;13.762;2023-01-30T07:31:45;98696.50;;;3.38;96.39
47166;BME280;32930;51.112;13.762;2023-01-30T07:34:11;98706.38;;;3.66;94.60
47166;BME280;32930;51.112;13.762;2023-01-30T07:36:36;98702.16;;;3.67;94.08
47166;BME280;32930;51.112;13.762;2023-01-30T07:39:03;98702.09;;;3.64;93.63
47166;BME280;32930;51.112;13.762;2023-01-30T07:41:29;98701.91;;;3.55;93.82
47166;BME280;32930;51.112;13.762;2023-01-30T07:43:55;98709.03;;;3.72;93.23
47166;BME280;32930;51.112;13.762;2023-01-30T07:46:20;98711.38;;;3.63;93.09
47166;BME280;32930;51.112;13.762;2023-01-30T07:48:46;98707.28;;;3.70;92.95
47166;BME280;32930;51.112;13.762;2023-01-30T07:51:12;98705.47;;;3.63;92.90
47166;BME280;32930;51.112;13.762;2023-01-30T07:53:37;98704.63;;;3.65;93.00
47166;BME280;32930;51.112;13.762;2023-01-30T08:08:44;98708.97;;;3.71;92.41
47166;BME280;32930;51.112;13.762;2023-01-30T08:11:13;98713.53;;;3.89;91.56
47166;BME280;32930;51.112;13.762;2023-01-30T08:13:39;98695.44;;;3.69;92.58
47166;BME280;32930;51.112;13.762;2023-01-30T08:16:06;98693.75;;;3.71;94.02
47166;BME280;32930;51.112;13.762;2023-01-30T08:18:34;98687.75;;;3.66;94.12
47166;BME280;32930;51.112;13.762;2023-01-30T08:21:04;98694.78;;;3.81;94.23
47166;BME280;32930;51.112;13.762;2023-01-30T08:23:33;98703.44;;;3.92;93.22
47166;BME280;32930;51.112;13.762;2023-01-30T08:26:04;98701.41;;;3.74;94.42
47166;BME280;32930;51.112;13.762;2023-01-30T08:35:14;98684.28;;;3.62;97.01
47166;BME280;32930;51.112;13.762;2023-01-30T08:37:45;98674.91;;;3.57;98.02
47166;BME280;32930;51.112;13.762;2023-01-30T08:40:11;98684.28;;;3.62;97.44
47166;BME280;32930;51.112;13.762;2023-01-30T08:42:43;98670.00;;;3.66;97.75
47166;BME280;32930;51.112;13.762;2023-01-30T08:45:10;98676.03;;;3.72;97.52
47166;BME280;32930;51.112;13.762;2023-01-30T08:47:44;98680.34;;;3.77;96.56
47166;BME280;32930;51.112;13.762;2023-01-30T08:50:10;98664.09;;;3.67;98.01
47166;BME280;32930;51.112;13.762;2023-01-30T08:52:44;98677.75;;;3.75;97.74
47166;BME280;32930;51.112;13.762;2023-01-30T08:55:13;98672.84;;;3.84;97.49
47166;BME280;32930;51.112;13.762;2023-01-30T08:57:41;98671.09;;;3.80;97.13
47166;BME280;32930;51.112;13.762;2023-01-30T09:00:32;98669.41;;;3.81;96.89
47166;BME280;32930;51.112;13.762;2023-01-30T09:03:13;98665.19;;;3.80;96.00
47166;BME280;32930;51.112;13.762;2023-01-30T09:06:00;98684.00;;;3.92;95.63
47166;BME280;32930;51.112;13.762;2023-01-30T09:08:26;98683.16;;;3.93;95.17
47166;BME280;32930;51.112;13.762;2023-01-30T09:11:13;98669.69;;;3.96;96.67
47166;BME280;32930;51.112;13.762;2023-01-30T09:13:39;98683.44;;;4.07;93.84
47166;BME280;32930;51.112;13.762;2023-01-30T09:16:13;98677.34;;;3.98;94.99
47166;BME280;32930;51.112;13.762;2023-01-30T09:18:40;98684.78;;;3.88;95.09
47166;BME280;32930;51.112;13.762;2023-01-30T09:21:12;98683.38;;;4.04;93.78
47166;BME280;32930;51.112;13.762;2023-01-30T09:23:42;98693.59;;;4.09;93.61
47166;BME280;32930;51.112;13.762;2023-01-30T09:26:13;98681.75;;;4.09;94.33
47166;BME280;32930;51.112;13.762;2023-01-30T09:28:49;98679.19;;;4.08;93.32
47166;BME280;32930;51.112;13.762;2023-01-30T09:31:15;98689.28;;;4.05;94.58
47166;BME280;32930;51.112;13.762;2023-01-30T09:33:44;98687.03;;;4.20;94.05
47166;BME280;32930;51.112;13.762;2023-01-30T09:39:07;98693.56;;;4.07;93.74
47166;BME280;32930;51.112;13.762;2023-01-30T09:42:13;98689.56;;;4.22;92.91
47166;BME280;32930;51.112;13.762;2023-01-30T09:45:33;98679.50;;;4.28;92.57
47166;BME280;32930;51.112;13.762;2023-01-30T09:56:30;98656.81;;;4.35;91.36
47166;BME280;32930;51.112;13.762;2023-01-30T09:59:04;98646.03;;;4.52;91.03
47166;BME280;32930;51.112;13.762;2023-01-30T10:04:53;98665.66;;;4.62;90.11
47166;BME280;32930;51.112;13.762;2023-01-30T10:24:58;98628.69;;;4.84;86.36
47166;BME280;32930;51.112;13.762;2023-01-30T10:30:17;98612.59;;;4.83;86.42
47166;BME280;32930;51.112;13.762;2023-01-30T10:33:25;98638.22;;;4.99;86.58
47166;BME280;32930;51.112;13.762;2023-01-30T10:36:28;98639.75;;;4.86;85.72
47166;BME280;32930;51.112;13.762;2023-01-30T10:39:35;98643.88;;;4.78;86.20
47166;BME280;32930;51.112;13.762;2023-01-30T10:42:21;98658.34;;;4.83;86.00
47166;BME280;32930;51.112;13.762;2023-01-30T15:39:40;98606.09;;;5.07;86.46
47166;BME280;32930;51.112;13.762;2023-01-30T17:03:37;98663.50;;;5.61;99.20
47166;BME280;32930;51.112;13.762;2023-01-30T17:06:08;98682.41;;;5.08;94.79
47166;BME280;32930;51.112;13.762;2023-01-30T17:08:50;98677.63;;;5.34;94.51
47166;BME280;32930;51.112;13.762;2023-01-30T17:11:36;98684.22;;;5.17;94.21
47166;BME280;32930;51.112;13.762;2023-01-30T17:52:31;98741.47;;;4.94;99.97
47166;BME280;32930;51.112;13.762;2023-01-30T17:54:56;98746.69;;;5.03;99.29
47166;BME280;32930;51.112;13.762;2023-01-30T17:57:22;98742.38;;;4.97;99.54
47166;BME280;32930;51.112;13.762;2023-01-30T17:59:49;98738.97;;;4.95;99.74
47166;BME280;32930;51.112;13.762;2023-01-30T18:02:16;98741.38;;;4.86;100.00
47166;BME280;32930;51.112;13.762;2023-01-30T18:04:45;98735.22;;;4.72;100.00
47166;BME280;32930;51.112;13.762;2023-01-30T18:07:13;98748.03;;;4.78;100.00
47166;BME280;32930;51.112;13.762;2023-01-30T18:10:05;98731.97;;;4.82;100.00
47166;BME280;32930;51.112;13.762;2023-01-30T18:25:35;98778.19;;;5.11;97.80
47166;BME280;32930;51.112;13.762;2023-01-30T18:28:01;98785.66;;;5.02;97.96
47166;BME280;32930;51.112;13.762;2023-01-30T18:43:27;98844.03;;;4.96;97.16
47166;BME280;32930;51.112;13.762;2023-01-30T18:46:00;98847.44;;;4.98;97.62
47166;BME280;32930;51.112;13.762;2023-01-30T18:48:29;98851.72;;;5.00;95.93
47166;BME280;32930;51.112;13.762;2023-01-30T18:51:02;98853.50;;;5.06;95.85
47166;BME280;32930;51.112;13.762;2023-01-30T18:53:28;98852.09;;;5.23;94.86
47166;BME280;32930;51.112;13.762;2023-01-30T18:55:54;98857.13;;;5.22;94.77
47166;BME280;32930;51.112;13.762;2023-01-30T18:58:19;98875.59;;;5.10;95.27
47166;BME280;32930;51.112;13.762;2023-01-30T19:00:58;98866.34;;;5.15;93.80
47166;BME280;32930;51.112;13.762;2023-01-30T19:05:53;98890.94;;;5.16;93.78
47166;BME280;32930;51.112;13.762;2023-01-30T19:08:26;98903.09;;;5.35;92.16
47166;BME280;32930;51.112;13.762;2023-01-30T19:11:14;98894.31;;;5.15;93.14
47166;BME280;32930;51.112;13.762;2023-01-30T19:13:58;98910.56;;;5.23;92.44
47166;BME280;32930;51.112;13.762;2023-01-30T19:16:26;98902.94;;;5.25;92.23
47166;BME280;32930;51.112;13.762;2023-01-30T19:18:53;98912.38;;;5.32;91.85
47166;BME280;32930;51.112;13.762;2023-01-30T19:21:20;98923.44;;;5.34;91.67
47166;BME280;32930;51.112;13.762;2023-01-30T19:47:19;98990.41;;;5.34;92.23
47166;BME280;32930;51.112;13.762;2023-01-30T19:49:47;98970.84;;;5.30;90.60
47166;BME280;32930;51.112;13.762;2023-01-30T19:52:13;98980.34;;;5.41;90.46
47166;BME280;32930;51.112;13.762;2023-01-30T19:55:06;99001.59;;;5.43;90.81
47166;BME280;32930;51.112;13.762;2023-01-30T19:57:33;98992.22;;;5.40;90.97
47166;BME280;32930;51.112;13.762;2023-01-30T19:59:59;98998.09;;;5.36;90.85
47166;BME280;32930;51.112;13.762;2023-01-30T20:02:24;99005.59;;;5.30;91.43
47166;BME280;32930;51.112;13.762;2023-01-30T20:04:59;99013.50;;;5.47;90.07
47166;BME280;32930;51.112;13.762;2023-01-30T22:19:41;99165.94;;;5.38;95.35
47166;BME280;32930;51.112;13.762;2023-01-30T22:22:06;99148.63;;;5.20;96.28
47166;BME280;32930;51.112;13.762;2023-01-30T22:24:32;99162.94;;;5.15;95.85
47166;BME280;32930;51.112;13.762;2023-01-30T22:26:57;99160.75;;;5.31;94.54
47166;BME280;32930;51.112;13.762;2023-01-30T22:29:23;99179.25;;;5.24;94.85
47166;BME280;32930;51.112;13.762;2023-01-30T22:31:49;99179.38;;;5.30;95.76
47166;BME280;32930;51.112;13.762;2023-01-30T22:34:14;99180.88;;;5.21;95.13
47166;BME280;32930;51.112;13.762;2023-01-30T22:36:40;99191.13;;;5.25;95.47
47166;BME280;32930;51.112;13.762;2023-01-30T22:39:05;99198.63;;;5.19;94.96
47166;BME280;32930;51.112;13.762;2023-01-30T22:41:33;99204.41;;;5.12;94.75
47166;BME280;32930;51.112;13.762;2023-01-30T22:44:01;99211.06;;;5.07;94.81
47166;BME280;32930;51.112;13.762;2023-01-30T22:46:32;99207.59;;;5.02;94.38
47166;BME280;32930;51.112;13.762;2023-01-30T22:48:59;99211.97;;;5.09;93.59
47166;BME280;32930;51.112;13.762;2023-01-30T22:51:29;99206.59;;;4.95;93.00
47166;BME280;32930;51.112;13.762;2023-01-30T22:54:00;99216.84;;;5.00;92.29
47166;BME280;32930;51.112;13.762;2023-01-30T22:56:29;99226.41;;;5.10;91.50
47166;BME280;32930;51.112;13.762;2023-01-30T22:58:56;99231.19;;;4.96;91.22
47166;BME280;32930;51.112;13.762;2023-01-30T23:01:29;99225.31;;;4.99;91.63
47166;BME280;32930;51.112;13.762;2023-01-30T23:03:55;99227.88;;;4.99;90.53
47166;BME280;32930;51.112;13.762;2023-01-30T23:06:23;99232.22;;;5.04;90.07
47166;BME280;32930;51.112;13.762;2023-01-30T23:08:49;99233.09;;;5.06;89.37
47166;BME280;32930;51.112;13.762;2023-01-30T23:11:22;99232.66;;;4.86;90.38
47166;BME280;32930;51.112;13.762;2023-01-30T23:13:50;99238.66;;;4.90;90.96
47166;BME280;32930;51.112;13.762;2023-01-30T23:16:18;99236.56;;;5.10;89.57
47166;BME280;32930;51.112;13.762;2023-01-30T23:18:44;99234.06;;;5.11;89.97
47166;BME280;32930;51.112;13.762;2023-01-30T23:21:25;99242.09;;;5.30;88.46
47166;BME280;32930;51.112;13.762;2023-01-30T23:23:54;99232.34;;;5.10;88.08
47166;BME280;32930;51.112;13.762;2023-01-30T23:26:22;99235.81;;;5.14;89.12
47166;BME280;32930;51.112;13.762;2023-01-30T23:28:48;99246.31;;;5.29;88.04
47166;BME280;32930;51.112;13.762;2023-01-30T23:31:18;99247.59;;;5.10;88.30
47166;BME280;32930;51.112;13.762;2023-01-30T23:33:44;99248.53;;;5.14;87.83
47166;BME280;32930;51.112;13.762;2023-01-30T23:36:12;99248.13;;;4.96;89.61
47166;BME280;32930;51.112;13.762;2023-01-30T23:38:38;99248.53;;;5.14;89.33
47166;BME280;32930;51.112;13.762;2023-01-30T23:41:08;99256.97;;;5.13;88.67
47166;BME280;32930;51.112;13.762;2023-01-30T23:43:34;99243.81;;;5.31;88.23
47166;BME280;32930;51.112;13.762;2023-01-30T23:46:23;99235.06;;;5.18;88.48
47166;BME280;32930;51.112;13.762;2023-01-30T23:48:54;99236.56;;;5.10;88.75
47166;BME280;32930;51.112;13.762;2023-01-30T23:51:23;99243.25;;;5.05;88.30
47166;BME280;32930;51.112;13.762;2023-01-30T23:53:49;99245.28;;;5.21;87.96
47166;BME280;32930;51.112;13.762;2023-01-30T23:56:16;99241.22;;;4.92;88.93
47166;BME280;32930;51.112;13.762;2023-01-30T23:58:44;99245.47;;;4.91;88.75
